📊 Raw Sensor Data

Showing records 34126 to 34150 of 84,829 total

ID Distance (ft) Battery V Battery A Int Temp (°F) Int Humid (%) Ext Temp (°F) Solar V RSSI SNR Time Stamp
50716 15.6 3.81 -5 71 46 73 0.00 -70 7 08/30/2025 10:30 PM
50715 15.6 3.81 -5 71 47 73 0.00 -70 8 08/30/2025 10:15 PM
50714 15.6 3.81 -5 71 47 72 0.00 -70 8 08/30/2025 10:00 PM
50713 15.6 3.81 -5 72 48 73 0.00 -70 8 08/30/2025 09:45 PM
50712 15.6 3.81 -5 73 48 75 0.00 -69 8 08/30/2025 09:30 PM
50711 15.6 3.81 -5 74 49 75 0.00 -69 8 08/30/2025 09:15 PM
50710 15.6 3.81 -5 75 50 77 0.00 -70 8 08/30/2025 09:00 PM
50709 15.6 3.88 -5 76 52 75 0.10 -70 8 08/30/2025 08:45 PM
50708 15.6 3.81 -5 78 53 76 0.00 -70 8 08/30/2025 08:30 PM
50707 15.6 3.81 -5 80 54 78 0.00 -69 8 08/30/2025 08:15 PM
50706 15.6 3.81 -5 83 56 80 0.00 -71 8 08/30/2025 08:00 PM
50705 15.6 3.81 -9 87 58 83 3.20 -70 8 08/30/2025 07:45 PM
50704 15.7 3.81 -5 92 58 87 4.50 -71 8 08/30/2025 07:30 PM
50703 15.7 3.90 0 100 54 92 4.60 -70 8 08/30/2025 07:15 PM
50702 15.7 3.92 10 104 53 98 4.60 -71 7 08/30/2025 07:00 PM
50701 15.8 3.89 18 108 51 101 4.60 -70 9 08/30/2025 06:45 PM
50700 15.7 3.84 0 110 51 103 5.10 -71 8 08/30/2025 06:30 PM
50699 15.7 3.98 0 111 50 103 5.10 -71 8 08/30/2025 06:15 PM
50698 15.8 3.87 0 113 49 104 5.10 -71 8 08/30/2025 06:00 PM
50697 15.8 3.84 0 114 48 105 5.10 -70 8 08/30/2025 05:45 PM
50696 15.9 3.84 0 115 47 106 5.10 -71 7 08/30/2025 05:30 PM
50695 15.8 3.95 0 115 46 104 5.10 -70 8 08/30/2025 05:15 PM
50694 15.9 3.84 0 114 46 100 5.10 -70 8 08/30/2025 05:00 PM
50693 15.8 3.84 0 114 46 101 5.10 -70 8 08/30/2025 04:45 PM
50692 15.8 3.84 0 114 45 100 5.10 -70 8 08/30/2025 04:30 PM